ALAS76 MPMG-MPSM
Flight info
| Callsign | ALAS76 |
|---|---|
| Flight time | 0h 42m |
| Altitude | 4500 |
| Route | DAMAX DCT RHT |
| Aircraft | DA40/L-SDGRY/S |
Departure
| Time | 2026-04-23 21:05 |
|---|---|
| Airport | Marcos A. Gelabert International Airport (MPMG) |
Arrival
| Time | 2026-04-23 21:47 |
|---|---|
| Airport | Scarlett Martinez International Airport (MPSM) |
| Time | Latitude | Longitude | Altitude | Speed | Heading |
|---|---|---|---|---|---|
| 2026-04-23 20:46 | 8.96878 | -79.55815 | 28 ft | 0 kts | 73° |
| 2026-04-23 20:55 | 8.96879 | -79.55805 | 28 ft | 4 kts | 95° |
| 2026-04-23 20:55 | 8.96868 | -79.55801 | 28 ft | 4 kts | 191° |
| 2026-04-23 20:55 | 8.96825 | -79.55807 | 28 ft | 8 kts | 186° |
| 2026-04-23 20:56 | 8.96758 | -79.55812 | 28 ft | 10 kts | 186° |
| 2026-04-23 20:56 | 8.96694 | -79.55818 | 28 ft | 9 kts | 186° |
| 2026-04-23 20:56 | 8.96636 | -79.55823 | 28 ft | 8 kts | 185° |
| 2026-04-23 20:56 | 8.96601 | -79.55827 | 28 ft | 7 kts | 187° |
| 2026-04-23 20:57 | 8.96557 | -79.55821 | 28 ft | 6 kts | 124° |
| 2026-04-23 20:57 | 8.96538 | -79.55786 | 28 ft | 7 kts | 123° |
| 2026-04-23 20:57 | 8.96521 | -79.55746 | 28 ft | 4 kts | 78° |
| 2026-04-23 20:57 | 8.96524 | -79.55743 | 28 ft | 0 kts | 34° |
| 2026-04-23 21:01 | 8.96542 | -79.55724 | 28 ft | 7 kts | 79° |
| 2026-04-23 21:01 | 8.96538 | -79.55661 | 27 ft | 10 kts | 96° |
| 2026-04-23 21:02 | 8.96541 | -79.55629 | 26 ft | 0 kts | 31° |
| 2026-04-23 21:02 | 8.96551 | -79.55626 | 26 ft | 0 kts | 4° |
| 2026-04-23 21:03 | 8.96560 | -79.55626 | 26 ft | 9 kts | 4° |
| 2026-04-23 21:03 | 8.96799 | -79.55605 | 26 ft | 57 kts | 5° |
| 2026-04-23 21:04 | 8.97266 | -79.55562 | 121 ft | 72 kts | 359° |
| 2026-04-23 21:04 | 8.97767 | -79.55485 | 281 ft | 75 kts | 4° |
| 2026-04-23 21:04 | 8.98273 | -79.55379 | 429 ft | 77 kts | 5° |
| 2026-04-23 21:04 | 8.98783 | -79.55277 | 601 ft | 74 kts | 4° |
| 2026-04-23 21:05 | 8.99296 | -79.55186 | 764 ft | 80 kts | 4° |
| 2026-04-23 21:05 | 8.99728 | -79.55381 | 928 ft | 84 kts | 279° |
| 2026-04-23 21:05 | 8.99465 | -79.55878 | 1125 ft | 84 kts | 231° |
| 2026-04-23 21:05 | 8.99052 | -79.56356 | 1268 ft | 92 kts | 226° |
| 2026-04-23 21:06 | 8.98616 | -79.56832 | 1505 ft | 92 kts | 230° |
| 2026-04-23 21:06 | 8.98176 | -79.57292 | 1805 ft | 89 kts | 227° |
| 2026-04-23 21:06 | 8.97727 | -79.57741 | 2026 ft | 95 kts | 234° |
| 2026-04-23 21:06 | 8.97212 | -79.58162 | 2173 ft | 105 kts | 190° |
| 2026-04-23 21:07 | 8.96537 | -79.57999 | 2392 ft | 100 kts | 163° |
| 2026-04-23 21:07 | 8.95869 | -79.57747 | 2521 ft | 103 kts | 157° |
| 2026-04-23 21:07 | 8.95212 | -79.57454 | 2662 ft | 103 kts | 168° |
| 2026-04-23 21:07 | 8.94513 | -79.57463 | 2765 ft | 103 kts | 185° |
| 2026-04-23 21:08 | 8.93863 | -79.57690 | 2951 ft | 95 kts | 220° |
| 2026-04-23 21:08 | 8.93341 | -79.58095 | 3113 ft | 96 kts | 218° |
| 2026-04-23 21:08 | 8.92792 | -79.58475 | 3271 ft | 96 kts | 214° |
| 2026-04-23 21:08 | 8.92220 | -79.58837 | 3430 ft | 96 kts | 212° |
| 2026-04-23 21:09 | 8.91639 | -79.59173 | 3599 ft | 96 kts | 210° |
| 2026-04-23 21:09 | 8.91053 | -79.59485 | 3764 ft | 96 kts | 207° |
| 2026-04-23 21:09 | 8.90449 | -79.59782 | 3924 ft | 97 kts | 205° |
| 2026-04-23 21:09 | 8.89846 | -79.60084 | 4069 ft | 97 kts | 219° |
| 2026-04-23 21:10 | 8.89392 | -79.60581 | 4231 ft | 96 kts | 230° |
| 2026-04-23 21:10 | 8.88957 | -79.61094 | 4391 ft | 96 kts | 230° |
| 2026-04-23 21:10 | 8.88510 | -79.61621 | 4477 ft | 105 kts | 230° |
| 2026-04-23 21:10 | 8.87990 | -79.62208 | 4480 ft | 118 kts | 228° |
| 2026-04-23 21:11 | 8.87409 | -79.62833 | 4476 ft | 125 kts | 227° |
| 2026-04-23 21:11 | 8.86792 | -79.63477 | 4477 ft | 129 kts | 226° |
| 2026-04-23 21:11 | 8.86156 | -79.64129 | 4477 ft | 131 kts | 226° |
| 2026-04-23 21:11 | 8.85513 | -79.64785 | 4477 ft | 132 kts | 226° |
| 2026-04-23 21:12 | 8.84862 | -79.65447 | 4480 ft | 133 kts | 226° |
| 2026-04-23 21:12 | 8.84209 | -79.66110 | 4480 ft | 133 kts | 226° |
| 2026-04-23 21:12 | 8.83556 | -79.66774 | 4480 ft | 133 kts | 226° |
| 2026-04-23 21:12 | 8.82899 | -79.67440 | 4481 ft | 134 kts | 226° |
| 2026-04-23 21:13 | 8.82244 | -79.68106 | 4477 ft | 134 kts | 226° |
| 2026-04-23 21:13 | 8.81588 | -79.68773 | 4477 ft | 134 kts | 226° |
| 2026-04-23 21:13 | 8.80932 | -79.69438 | 4480 ft | 133 kts | 226° |
| 2026-04-23 21:13 | 8.80285 | -79.70095 | 4480 ft | 133 kts | 226° |
| 2026-04-23 21:14 | 8.79631 | -79.70759 | 4483 ft | 133 kts | 226° |
| 2026-04-23 21:14 | 8.78974 | -79.71421 | 4483 ft | 133 kts | 226° |
| 2026-04-23 21:14 | 8.78314 | -79.72081 | 4483 ft | 133 kts | 225° |
| 2026-04-23 21:14 | 8.77651 | -79.72738 | 4491 ft | 134 kts | 225° |
| 2026-04-23 21:15 | 8.76985 | -79.73394 | 4488 ft | 134 kts | 225° |
| 2026-04-23 21:15 | 8.76316 | -79.74047 | 4488 ft | 134 kts | 225° |
| 2026-04-23 21:15 | 8.75643 | -79.74698 | 4488 ft | 134 kts | 225° |
| 2026-04-23 21:15 | 8.74967 | -79.75347 | 4489 ft | 134 kts | 224° |
| 2026-04-23 21:16 | 8.74288 | -79.75994 | 4489 ft | 134 kts | 224° |
| 2026-04-23 21:16 | 8.73606 | -79.76639 | 4489 ft | 134 kts | 224° |
| 2026-04-23 21:16 | 8.72919 | -79.77284 | 4479 ft | 135 kts | 224° |
| 2026-04-23 21:16 | 8.72230 | -79.77925 | 4484 ft | 134 kts | 223° |
| 2026-04-23 21:17 | 8.71544 | -79.78559 | 4482 ft | 134 kts | 223° |
| 2026-04-23 21:17 | 8.70854 | -79.79192 | 4481 ft | 134 kts | 223° |
| 2026-04-23 21:17 | 8.70162 | -79.79821 | 4483 ft | 134 kts | 223° |
| 2026-04-23 21:17 | 8.69471 | -79.80445 | 4481 ft | 133 kts | 224° |
| 2026-04-23 21:18 | 8.68780 | -79.81065 | 4486 ft | 132 kts | 223° |
| 2026-04-23 21:18 | 8.68091 | -79.81677 | 4484 ft | 132 kts | 223° |
| 2026-04-23 21:18 | 8.67399 | -79.82287 | 4485 ft | 132 kts | 222° |
| 2026-04-23 21:18 | 8.66709 | -79.82890 | 4483 ft | 131 kts | 221° |
| 2026-04-23 21:19 | 8.66018 | -79.83489 | 4482 ft | 131 kts | 222° |
| 2026-04-23 21:19 | 8.65324 | -79.84084 | 4481 ft | 131 kts | 221° |
| 2026-04-23 21:19 | 8.64637 | -79.84668 | 4482 ft | 131 kts | 221° |
| 2026-04-23 21:19 | 8.63938 | -79.85257 | 4483 ft | 131 kts | 221° |
| 2026-04-23 21:20 | 8.63234 | -79.85845 | 4485 ft | 131 kts | 221° |
| 2026-04-23 21:20 | 8.62530 | -79.86428 | 4486 ft | 131 kts | 221° |
| 2026-04-23 21:20 | 8.61820 | -79.87010 | 4490 ft | 132 kts | 221° |
| 2026-04-23 21:20 | 8.61107 | -79.87590 | 4492 ft | 132 kts | 221° |
| 2026-04-23 21:21 | 8.60391 | -79.88169 | 4488 ft | 132 kts | 220° |
| 2026-04-23 21:21 | 8.59673 | -79.88744 | 4488 ft | 131 kts | 219° |
| 2026-04-23 21:21 | 8.58955 | -79.89314 | 4489 ft | 131 kts | 220° |
| 2026-04-23 21:21 | 8.58234 | -79.89882 | 4487 ft | 132 kts | 219° |
| 2026-04-23 21:22 | 8.57504 | -79.90451 | 4478 ft | 133 kts | 219° |
| 2026-04-23 21:22 | 8.56770 | -79.91019 | 4488 ft | 133 kts | 218° |
| 2026-04-23 21:22 | 8.56026 | -79.91589 | 4487 ft | 134 kts | 219° |
| 2026-04-23 21:22 | 8.55280 | -79.92156 | 4490 ft | 134 kts | 218° |
| 2026-04-23 21:23 | 8.54526 | -79.92724 | 4491 ft | 135 kts | 218° |
| 2026-04-23 21:23 | 8.53765 | -79.93291 | 4492 ft | 136 kts | 218° |
| 2026-04-23 21:23 | 8.52998 | -79.93859 | 4493 ft | 137 kts | 218° |
| 2026-04-23 21:23 | 8.52228 | -79.94426 | 4491 ft | 137 kts | 217° |
| 2026-04-23 21:24 | 8.51460 | -79.94985 | 4490 ft | 136 kts | 217° |
| 2026-04-23 21:24 | 8.50690 | -79.95537 | 4489 ft | 134 kts | 217° |
| 2026-04-23 21:24 | 8.49930 | -79.96076 | 4489 ft | 136 kts | 217° |
| 2026-04-23 21:24 | 8.49157 | -79.96623 | 4488 ft | 136 kts | 217° |
| 2026-04-23 21:25 | 8.48381 | -79.97165 | 4491 ft | 136 kts | 216° |
| 2026-04-23 21:25 | 8.47602 | -79.97704 | 4488 ft | 136 kts | 215° |
| 2026-04-23 21:25 | 8.46822 | -79.98241 | 4499 ft | 135 kts | 216° |
| 2026-04-23 21:25 | 8.46045 | -79.98772 | 4508 ft | 135 kts | 215° |
| 2026-04-23 21:26 | 8.45242 | -79.99318 | 4327 ft | 147 kts | 215° |
| 2026-04-23 21:26 | 8.44358 | -79.99918 | 4030 ft | 157 kts | 215° |
| 2026-04-23 21:26 | 8.43435 | -80.00543 | 3754 ft | 162 kts | 215° |
| 2026-04-23 21:26 | 8.42496 | -80.01179 | 3505 ft | 162 kts | 215° |
| 2026-04-23 21:27 | 8.41565 | -80.01809 | 3264 ft | 160 kts | 215° |
| 2026-04-23 21:27 | 8.40641 | -80.02431 | 3024 ft | 159 kts | 215° |
| 2026-04-23 21:27 | 8.39718 | -80.03051 | 2783 ft | 160 kts | 215° |
| 2026-04-23 21:27 | 8.38790 | -80.03672 | 2541 ft | 160 kts | 214° |
| 2026-04-23 21:28 | 8.37867 | -80.04287 | 2297 ft | 158 kts | 214° |
| 2026-04-23 21:28 | 8.36951 | -80.04897 | 2049 ft | 157 kts | 214° |
| 2026-04-23 21:28 | 8.36043 | -80.05520 | 1742 ft | 158 kts | 214° |
| 2026-04-23 21:28 | 8.35171 | -80.06129 | 1530 ft | 145 kts | 215° |
| 2026-04-23 21:29 | 8.34389 | -80.06711 | 1339 ft | 137 kts | 217° |
| 2026-04-23 21:29 | 8.33853 | -80.07395 | 1441 ft | 115 kts | 246° |
| 2026-04-23 21:29 | 8.33589 | -80.08155 | 1288 ft | 122 kts | 253° |
| 2026-04-23 21:29 | 8.33391 | -80.09030 | 974 ft | 133 kts | 261° |
| 2026-04-23 21:30 | 8.33246 | -80.09890 | 976 ft | 117 kts | 259° |
| 2026-04-23 21:30 | 8.33077 | -80.10647 | 975 ft | 106 kts | 256° |
| 2026-04-23 21:30 | 8.32914 | -80.11313 | 972 ft | 87 kts | 263° |
| 2026-04-23 21:30 | 8.33258 | -80.11695 | 935 ft | 79 kts | 341° |
| 2026-04-23 21:31 | 8.33812 | -80.11871 | 792 ft | 86 kts | 348° |
| 2026-04-23 21:31 | 8.34395 | -80.11986 | 675 ft | 86 kts | 351° |
| 2026-04-23 21:31 | 8.34975 | -80.12147 | 540 ft | 86 kts | 346° |
| 2026-04-23 21:31 | 8.35545 | -80.12309 | 388 ft | 86 kts | 350° |
| 2026-04-23 21:32 | 8.36110 | -80.12462 | 277 ft | 83 kts | 348° |
| 2026-04-23 21:32 | 8.36681 | -80.12601 | 180 ft | 85 kts | 348° |
| 2026-04-23 21:32 | 8.37243 | -80.12749 | 83 ft | 72 kts | 339° |
| 2026-04-23 21:32 | 8.37684 | -80.12878 | 105 ft | 74 kts | 343° |
| 2026-04-23 21:33 | 8.38210 | -80.13036 | 247 ft | 82 kts | 342° |
| 2026-04-23 21:33 | 8.38736 | -80.13184 | 498 ft | 76 kts | 348° |
| 2026-04-23 21:33 | 8.39283 | -80.13385 | 614 ft | 90 kts | 342° |
| 2026-04-23 21:33 | 8.39883 | -80.13612 | 760 ft | 92 kts | 341° |
| 2026-04-23 21:34 | 8.40320 | -80.14040 | 905 ft | 100 kts | 275° |
| 2026-04-23 21:34 | 8.40168 | -80.14701 | 1084 ft | 100 kts | 234° |
| 2026-04-23 21:34 | 8.39581 | -80.14870 | 1215 ft | 100 kts | 154° |
| 2026-04-23 21:34 | 8.38937 | -80.14526 | 1206 ft | 111 kts | 150° |
| 2026-04-23 21:35 | 8.38190 | -80.14239 | 1199 ft | 117 kts | 157° |
| 2026-04-23 21:35 | 8.37403 | -80.13976 | 1201 ft | 121 kts | 159° |
| 2026-04-23 21:35 | 8.36611 | -80.13709 | 1143 ft | 111 kts | 159° |
| 2026-04-23 21:35 | 8.35922 | -80.13528 | 1139 ft | 93 kts | 160° |
| 2026-04-23 21:36 | 8.35757 | -80.12622 | 721 ft | 76 kts | 66° |
| 2026-04-23 21:36 | 8.36217 | -80.12489 | 362 ft | 78 kts | 345° |
| 2026-04-23 21:36 | 8.36742 | -80.12625 | 146 ft | 74 kts | 352° |
| 2026-04-23 21:37 | 8.37218 | -80.12742 | 81 ft | 59 kts | 346° |
| 2026-04-23 21:37 | 8.37650 | -80.12866 | 120 ft | 75 kts | 344° |
| 2026-04-23 21:37 | 8.38174 | -80.13029 | 268 ft | 82 kts | 344° |
| 2026-04-23 21:37 | 8.38737 | -80.13197 | 430 ft | 87 kts | 342° |
| 2026-04-23 21:38 | 8.39331 | -80.13388 | 581 ft | 89 kts | 344° |
| 2026-04-23 21:38 | 8.39954 | -80.13582 | 710 ft | 96 kts | 349° |
| 2026-04-23 21:38 | 8.40591 | -80.13824 | 823 ft | 102 kts | 323° |
| 2026-04-23 21:38 | 8.40761 | -80.14495 | 920 ft | 105 kts | 255° |
| 2026-04-23 21:39 | 8.40374 | -80.15068 | 1042 ft | 106 kts | 193° |
| 2026-04-23 21:39 | 8.39648 | -80.14993 | 1111 ft | 109 kts | 165° |
| 2026-04-23 21:39 | 8.38905 | -80.14804 | 1130 ft | 113 kts | 161° |
| 2026-04-23 21:39 | 8.38123 | -80.14613 | 1119 ft | 119 kts | 162° |
| 2026-04-23 21:40 | 8.37306 | -80.14388 | 1096 ft | 123 kts | 161° |
| 2026-04-23 21:40 | 8.36472 | -80.14139 | 999 ft | 121 kts | 160° |
| 2026-04-23 21:40 | 8.35780 | -80.13913 | 1050 ft | 85 kts | 159° |
| 2026-04-23 21:40 | 8.35258 | -80.13701 | 903 ft | 82 kts | 123° |
| 2026-04-23 21:41 | 8.35256 | -80.13175 | 811 ft | 77 kts | 73° |
| 2026-04-23 21:41 | 8.35382 | -80.12652 | 610 ft | 73 kts | 77° |
| 2026-04-23 21:41 | 8.35589 | -80.12227 | 392 ft | 72 kts | 15° |
| 2026-04-23 21:41 | 8.36103 | -80.12418 | 237 ft | 82 kts | 340° |
| 2026-04-23 21:42 | 8.36612 | -80.12578 | 156 ft | 72 kts | 349° |
| 2026-04-23 21:42 | 8.37096 | -80.12709 | 83 ft | 70 kts | 347° |
| 2026-04-23 21:42 | 8.37512 | -80.12826 | 91 ft | 69 kts | 344° |
| 2026-04-23 21:42 | 8.38017 | -80.12978 | 220 ft | 79 kts | 342° |
| 2026-04-23 21:43 | 8.38561 | -80.13148 | 379 ft | 84 kts | 343° |
| 2026-04-23 21:43 | 8.39133 | -80.13330 | 552 ft | 85 kts | 342° |
| 2026-04-23 21:43 | 8.39710 | -80.13521 | 691 ft | 89 kts | 345° |
| 2026-04-23 21:43 | 8.40112 | -80.13649 | 786 ft | 92 kts | 346° |
| 2026-04-23 21:44 | 8.40462 | -80.14169 | 901 ft | 104 kts | 258° |
| 2026-04-23 21:44 | 8.40164 | -80.14840 | 973 ft | 110 kts | 213° |
| 2026-04-23 21:44 | 8.39455 | -80.14855 | 1097 ft | 102 kts | 164° |
| 2026-04-23 21:44 | 8.38733 | -80.14691 | 1100 ft | 109 kts | 162° |
| 2026-04-23 21:45 | 8.37983 | -80.14527 | 1062 ft | 115 kts | 163° |
| 2026-04-23 21:45 | 8.37213 | -80.14325 | 1022 ft | 110 kts | 161° |
| 2026-04-23 21:45 | 8.36538 | -80.14137 | 984 ft | 88 kts | 160° |
| 2026-04-23 21:45 | 8.35998 | -80.13976 | 859 ft | 81 kts | 158° |
| 2026-04-23 21:46 | 8.35496 | -80.13747 | 846 ft | 75 kts | 128° |
| 2026-04-23 21:46 | 8.35501 | -80.13252 | 728 ft | 73 kts | 74° |
| 2026-04-23 21:46 | 8.35620 | -80.12783 | 510 ft | 66 kts | 73° |
| 2026-04-23 21:46 | 8.35812 | -80.12377 | 371 ft | 66 kts | 25° |
| 2026-04-23 21:47 | 8.36303 | -80.12503 | 234 ft | 75 kts | 347° |
| 2026-04-23 21:47 | 8.36809 | -80.12633 | 128 ft | 77 kts | 348° |
| 2026-04-23 21:47 | 8.37292 | -80.12763 | 82 ft | 57 kts | 345° |
| 2026-04-23 21:47 | 8.37588 | -80.12847 | 94 ft | 34 kts | 344° |
| 2026-04-23 21:48 | 8.37775 | -80.12898 | 99 ft | 23 kts | 343° |
| 2026-04-23 21:48 | 8.37925 | -80.12943 | 100 ft | 24 kts | 344° |
| 2026-04-23 21:48 | 8.38099 | -80.12992 | 104 ft | 28 kts | 344° |
| 2026-04-23 21:48 | 8.38299 | -80.13049 | 107 ft | 32 kts | 343° |
| 2026-04-23 21:49 | 8.38500 | -80.13105 | 112 ft | 25 kts | 347° |
| 2026-04-23 21:49 | 8.38623 | -80.13138 | 113 ft | 14 kts | 359° |
| 2026-04-23 21:49 | 8.38668 | -80.13085 | 113 ft | 0 kts | 74° |
| 2026-04-23 21:50 | 8.38676 | -80.13053 | 113 ft | 11 kts | 75° |
| 2026-04-23 21:50 | 8.38669 | -80.12985 | 114 ft | 10 kts | 108° |
| 2026-04-23 21:51 | 8.38648 | -80.12926 | 114 ft | 8 kts | 121° |
| 2026-04-23 21:51 | 8.38616 | -80.12926 | 114 ft | 4 kts | 253° |